sensor_id;sensor_type;location;lat;lon;timestamp;temperature;humidity
5461;DHT22;2753;49.196;8.286;2023-07-02T00:01:19;19.20;98.70
5461;DHT22;2753;49.196;8.286;2023-07-02T00:03:44;19.30;98.60
5461;DHT22;2753;49.196;8.286;2023-07-02T00:06:10;19.30;98.50
5461;DHT22;2753;49.196;8.286;2023-07-02T00:08:36;19.30;98.60
5461;DHT22;2753;49.196;8.286;2023-07-02T00:11:01;19.20;98.90
5461;DHT22;2753;49.196;8.286;2023-07-02T00:13:27;19.00;99.20
5461;DHT22;2753;49.196;8.286;2023-07-02T00:15:52;19.00;99.30
5461;DHT22;2753;49.196;8.286;2023-07-02T00:18:18;19.00;99.50
5461;DHT22;2753;49.196;8.286;2023-07-02T00:20:44;18.80;99.70
5461;DHT22;2753;49.196;8.286;2023-07-02T00:23:09;18.80;99.90
5461;DHT22;2753;49.196;8.286;2023-07-02T00:25:38;18.80;99.90
5461;DHT22;2753;49.196;8.286;2023-07-02T00:28:04;18.80;99.80
5461;DHT22;2753;49.196;8.286;2023-07-02T00:30:30;18.90;99.60
5461;DHT22;2753;49.196;8.286;2023-07-02T00:32:55;18.90;99.80
5461;DHT22;2753;49.196;8.286;2023-07-02T00:35:21;18.80;99.90
5461;DHT22;2753;49.196;8.286;2023-07-02T00:37:48;18.80;99.90
5461;DHT22;2753;49.196;8.286;2023-07-02T00:40:14;18.70;99.90
5461;DHT22;2753;49.196;8.286;2023-07-02T00:42:40;18.60;99.90
5461;DHT22;2753;49.196;8.286;2023-07-02T00:45:06;18.60;99.90
5461;DHT22;2753;49.196;8.286;2023-07-02T00:47:35;18.70;99.90
5461;DHT22;2753;49.196;8.286;2023-07-02T00:50:02;18.70;99.90
5461;DHT22;2753;49.196;8.286;2023-07-02T00:52:28;18.60;99.90
5461;DHT22;2753;49.196;8.286;2023-07-02T00:54:53;18.60;99.90
5461;DHT22;2753;49.196;8.286;2023-07-02T00:57:19;18.60;99.90
5461;DHT22;2753;49.196;8.286;2023-07-02T00:59:45;18.70;99.90
5461;DHT22;2753;49.196;8.286;2023-07-02T01:02:11;18.60;99.90
5461;DHT22;2753;49.196;8.286;2023-07-02T01:04:38;18.60;99.90
5461;DHT22;2753;49.196;8.286;2023-07-02T01:07:05;18.60;99.90
5461;DHT22;2753;49.196;8.286;2023-07-02T01:09:35;18.70;99.80
5461;DHT22;2753;49.196;8.286;2023-07-02T01:12:04;18.80;99.60
5461;DHT22;2753;49.196;8.286;2023-07-02T01:14:37;18.80;99.50
5461;DHT22;2753;49.196;8.286;2023-07-02T01:17:05;18.80;99.50
5461;DHT22;2753;49.196;8.286;2023-07-02T01:22:09;18.80;99.60
5461;DHT22;2753;49.196;8.286;2023-07-02T01:24:36;18.80;99.70
5461;DHT22;2753;49.196;8.286;2023-07-02T01:27:04;18.80;99.60
5461;DHT22;2753;49.196;8.286;2023-07-02T01:29:30;18.80;99.60
5461;DHT22;2753;49.196;8.286;2023-07-02T01:31:56;18.80;99.50
5461;DHT22;2753;49.196;8.286;2023-07-02T01:34:22;18.80;99.60
5461;DHT22;2753;49.196;8.286;2023-07-02T01:36:48;18.80;99.60
5461;DHT22;2753;49.196;8.286;2023-07-02T01:39:13;18.80;99.60
5461;DHT22;2753;49.196;8.286;2023-07-02T01:42:12;18.80;99.50
5461;DHT22;2753;49.196;8.286;2023-07-02T01:44:38;18.80;99.50
5461;DHT22;2753;49.196;8.286;2023-07-02T01:47:04;18.80;99.50
5461;DHT22;2753;49.196;8.286;2023-07-02T01:49:30;18.80;99.40
5461;DHT22;2753;49.196;8.286;2023-07-02T01:51:56;18.80;99.50
5461;DHT22;2753;49.196;8.286;2023-07-02T01:54:26;18.80;99.60
5461;DHT22;2753;49.196;8.286;2023-07-02T01:56:53;18.80;99.50
5461;DHT22;2753;49.196;8.286;2023-07-02T01:59:19;18.70;99.50
5461;DHT22;2753;49.196;8.286;2023-07-02T02:01:45;18.70;99.50
5461;DHT22;2753;49.196;8.286;2023-07-02T02:04:11;18.70;99.50
5461;DHT22;2753;49.196;8.286;2023-07-02T02:06:38;18.70;99.40
5461;DHT22;2753;49.196;8.286;2023-07-02T02:09:04;18.70;99.30
5461;DHT22;2753;49.196;8.286;2023-07-02T02:11:31;18.70;99.30
5461;DHT22;2753;49.196;8.286;2023-07-02T02:13:57;18.70;99.20
5461;DHT22;2753;49.196;8.286;2023-07-02T02:16:23;18.70;99.20
5461;DHT22;2753;49.196;8.286;2023-07-02T02:18:49;18.70;99.10
5461;DHT22;2753;49.196;8.286;2023-07-02T02:21:18;18.70;99.10
5461;DHT22;2753;49.196;8.286;2023-07-02T02:23:44;18.70;99.00
5461;DHT22;2753;49.196;8.286;2023-07-02T02:26:10;18.80;99.00
5461;DHT22;2753;49.196;8.286;2023-07-02T02:28:35;18.80;99.10
5461;DHT22;2753;49.196;8.286;2023-07-02T02:31:01;18.70;99.00
5461;DHT22;2753;49.196;8.286;2023-07-02T02:33:27;18.70;98.90
5461;DHT22;2753;49.196;8.286;2023-07-02T02:35:53;18.70;98.90
5461;DHT22;2753;49.196;8.286;2023-07-02T02:38:19;18.70;98.80
5461;DHT22;2753;49.196;8.286;2023-07-02T02:40:44;18.70;98.80
5461;DHT22;2753;49.196;8.286;2023-07-02T02:43:10;18.70;98.70
5461;DHT22;2753;49.196;8.286;2023-07-02T02:45:36;18.70;98.60
5461;DHT22;2753;49.196;8.286;2023-07-02T02:48:01;18.70;98.50
5461;DHT22;2753;49.196;8.286;2023-07-02T02:50:27;18.60;98.50
5461;DHT22;2753;49.196;8.286;2023-07-02T02:52:53;18.60;98.40
5461;DHT22;2753;49.196;8.286;2023-07-02T02:55:19;18.60;98.40
5461;DHT22;2753;49.196;8.286;2023-07-02T02:57:44;18.60;98.40
5461;DHT22;2753;49.196;8.286;2023-07-02T03:00:10;18.60;98.40
5461;DHT22;2753;49.196;8.286;2023-07-02T03:02:37;18.60;98.30
5461;DHT22;2753;49.196;8.286;2023-07-02T03:05:04;18.60;98.30
5461;DHT22;2753;49.196;8.286;2023-07-02T03:07:30;18.60;98.20
5461;DHT22;2753;49.196;8.286;2023-07-02T03:09:56;18.60;98.00
5461;DHT22;2753;49.196;8.286;2023-07-02T03:12:22;18.60;97.80
5461;DHT22;2753;49.196;8.286;2023-07-02T03:14:48;18.50;97.50
5461;DHT22;2753;49.196;8.286;2023-07-02T03:17:19;18.50;97.40
5461;DHT22;2753;49.196;8.286;2023-07-02T03:19:44;18.50;97.10
5461;DHT22;2753;49.196;8.286;2023-07-02T03:22:10;18.50;96.90
5461;DHT22;2753;49.196;8.286;2023-07-02T03:24:36;18.50;96.90
5461;DHT22;2753;49.196;8.286;2023-07-02T03:27:01;18.50;96.70
5461;DHT22;2753;49.196;8.286;2023-07-02T03:29:27;18.40;96.20
5461;DHT22;2753;49.196;8.286;2023-07-02T03:31:52;18.40;96.30
5461;DHT22;2753;49.196;8.286;2023-07-02T03:34:18;18.30;96.00
5461;DHT22;2753;49.196;8.286;2023-07-02T03:36:44;18.30;96.10
5461;DHT22;2753;49.196;8.286;2023-07-02T03:39:10;18.20;95.70
5461;DHT22;2753;49.196;8.286;2023-07-02T03:41:36;18.10;95.90
5461;DHT22;2753;49.196;8.286;2023-07-02T03:44:01;18.20;96.00
5461;DHT22;2753;49.196;8.286;2023-07-02T03:46:27;18.10;95.70
5461;DHT22;2753;49.196;8.286;2023-07-02T03:48:52;18.00;95.80
5461;DHT22;2753;49.196;8.286;2023-07-02T03:51:18;18.10;95.80
5461;DHT22;2753;49.196;8.286;2023-07-02T03:53:44;18.10;95.70
5461;DHT22;2753;49.196;8.286;2023-07-02T03:56:09;18.10;95.60
5461;DHT22;2753;49.196;8.286;2023-07-02T03:58:35;18.10;95.40
5461;DHT22;2753;49.196;8.286;2023-07-02T04:01:01;18.10;95.40
5461;DHT22;2753;49.196;8.286;2023-07-02T04:03:27;18.10;95.40
5461;DHT22;2753;49.196;8.286;2023-07-02T04:05:52;18.00;95.30
5461;DHT22;2753;49.196;8.286;2023-07-02T04:08:18;18.00;95.20
5461;DHT22;2753;49.196;8.286;2023-07-02T04:10:46;18.00;95.20
5461;DHT22;2753;49.196;8.286;2023-07-02T04:13:12;18.00;95.20
5461;DHT22;2753;49.196;8.286;2023-07-02T04:15:38;18.00;95.20
5461;DHT22;2753;49.196;8.286;2023-07-02T04:18:03;18.00;95.30
5461;DHT22;2753;49.196;8.286;2023-07-02T04:20:29;18.00;95.30
5461;DHT22;2753;49.196;8.286;2023-07-02T04:22:55;17.90;95.30
5461;DHT22;2753;49.196;8.286;2023-07-02T04:25:21;17.90;95.40
5461;DHT22;2753;49.196;8.286;2023-07-02T04:27:47;17.90;95.40
5461;DHT22;2753;49.196;8.286;2023-07-02T04:30:13;17.80;95.40
5461;DHT22;2753;49.196;8.286;2023-07-02T04:32:39;17.80;95.40
5461;DHT22;2753;49.196;8.286;2023-07-02T04:35:07;17.80;95.50
5461;DHT22;2753;49.196;8.286;2023-07-02T04:37:33;17.80;95.60
5461;DHT22;2753;49.196;8.286;2023-07-02T04:39:59;17.80;95.60
5461;DHT22;2753;49.196;8.286;2023-07-02T04:42:26;17.80;95.60
5461;DHT22;2753;49.196;8.286;2023-07-02T04:44:53;17.80;95.50
5461;DHT22;2753;49.196;8.286;2023-07-02T04:47:19;17.70;95.50
5461;DHT22;2753;49.196;8.286;2023-07-02T04:49:45;17.70;95.50
5461;DHT22;2753;49.196;8.286;2023-07-02T04:52:11;17.70;95.40
5461;DHT22;2753;49.196;8.286;2023-07-02T04:54:37;17.80;95.30
5461;DHT22;2753;49.196;8.286;2023-07-02T04:57:03;17.80;95.20
5461;DHT22;2753;49.196;8.286;2023-07-02T04:59:28;17.90;95.00
5461;DHT22;2753;49.196;8.286;2023-07-02T05:01:54;17.90;94.90
5461;DHT22;2753;49.196;8.286;2023-07-02T05:04:19;17.90;94.70
5461;DHT22;2753;49.196;8.286;2023-07-02T05:06:45;17.90;94.60
5461;DHT22;2753;49.196;8.286;2023-07-02T05:09:11;17.90;94.80
5461;DHT22;2753;49.196;8.286;2023-07-02T05:11:36;17.90;94.40
5461;DHT22;2753;49.196;8.286;2023-07-02T05:14:02;17.90;94.50
5461;DHT22;2753;49.196;8.286;2023-07-02T05:16:28;17.90;94.40
5461;DHT22;2753;49.196;8.286;2023-07-02T05:18:54;17.90;94.30
5461;DHT22;2753;49.196;8.286;2023-07-02T05:21:20;17.80;94.20
5461;DHT22;2753;49.196;8.286;2023-07-02T05:23:46;17.90;94.30
5461;DHT22;2753;49.196;8.286;2023-07-02T05:26:12;17.90;94.10
5461;DHT22;2753;49.196;8.286;2023-07-02T05:28:38;17.90;94.00
5461;DHT22;2753;49.196;8.286;2023-07-02T05:31:03;17.90;94.00
5461;DHT22;2753;49.196;8.286;2023-07-02T05:33:29;18.00;94.00
5461;DHT22;2753;49.196;8.286;2023-07-02T05:35:56;17.90;93.80
5461;DHT22;2753;49.196;8.286;2023-07-02T05:38:22;18.00;93.90
5461;DHT22;2753;49.196;8.286;2023-07-02T05:40:48;18.00;93.90
5461;DHT22;2753;49.196;8.286;2023-07-02T05:43:14;18.10;93.90
5461;DHT22;2753;49.196;8.286;2023-07-02T05:45:40;18.10;93.60
5461;DHT22;2753;49.196;8.286;2023-07-02T05:48:05;18.10;93.60
5461;DHT22;2753;49.196;8.286;2023-07-02T05:50:31;18.10;93.50
5461;DHT22;2753;49.196;8.286;2023-07-02T05:52:57;18.20;93.50
5461;DHT22;2753;49.196;8.286;2023-07-02T05:55:22;18.20;93.20
5461;DHT22;2753;49.196;8.286;2023-07-02T05:57:48;18.20;93.40
5461;DHT22;2753;49.196;8.286;2023-07-02T06:00:14;18.20;93.50
5461;DHT22;2753;49.196;8.286;2023-07-02T06:02:40;18.30;93.60
5461;DHT22;2753;49.196;8.286;2023-07-02T06:05:06;18.20;93.50
5461;DHT22;2753;49.196;8.286;2023-07-02T06:07:32;18.30;93.40
5461;DHT22;2753;49.196;8.286;2023-07-02T06:09:57;18.30;93.30
5461;DHT22;2753;49.196;8.286;2023-07-02T06:12:23;18.30;93.30
5461;DHT22;2753;49.196;8.286;2023-07-02T06:14:49;18.40;93.10
5461;DHT22;2753;49.196;8.286;2023-07-02T06:17:14;18.50;93.20
5461;DHT22;2753;49.196;8.286;2023-07-02T06:19:41;18.50;93.20
5461;DHT22;2753;49.196;8.286;2023-07-02T06:22:06;18.50;93.10
5461;DHT22;2753;49.196;8.286;2023-07-02T06:24:32;18.50;93.00
5461;DHT22;2753;49.196;8.286;2023-07-02T06:26:58;18.50;93.00
5461;DHT22;2753;49.196;8.286;2023-07-02T06:29:24;18.60;93.10
5461;DHT22;2753;49.196;8.286;2023-07-02T06:31:50;18.70;93.10
5461;DHT22;2753;49.196;8.286;2023-07-02T06:34:16;18.70;92.90
5461;DHT22;2753;49.196;8.286;2023-07-02T06:36:42;18.70;93.00
5461;DHT22;2753;49.196;8.286;2023-07-02T06:39:08;18.70;93.20
5461;DHT22;2753;49.196;8.286;2023-07-02T06:41:37;18.80;93.20
5461;DHT22;2753;49.196;8.286;2023-07-02T06:44:03;18.90;93.00
5461;DHT22;2753;49.196;8.286;2023-07-02T06:46:29;18.90;93.00
5461;DHT22;2753;49.196;8.286;2023-07-02T06:48:56;19.00;93.00
5461;DHT22;2753;49.196;8.286;2023-07-02T06:51:22;18.90;92.90
5461;DHT22;2753;49.196;8.286;2023-07-02T06:53:48;19.10;92.90
5461;DHT22;2753;49.196;8.286;2023-07-02T06:56:13;19.10;92.60
5461;DHT22;2753;49.196;8.286;2023-07-02T06:58:41;19.30;92.80
5461;DHT22;2753;49.196;8.286;2023-07-02T07:01:07;19.50;92.70
5461;DHT22;2753;49.196;8.286;2023-07-02T07:03:34;19.70;92.40
5461;DHT22;2753;49.196;8.286;2023-07-02T07:06:00;19.80;91.80
5461;DHT22;2753;49.196;8.286;2023-07-02T07:08:25;20.00;91.90
5461;DHT22;2753;49.196;8.286;2023-07-02T07:10:51;20.20;91.90
5461;DHT22;2753;49.196;8.286;2023-07-02T07:13:17;20.30;91.70
5461;DHT22;2753;49.196;8.286;2023-07-02T07:15:42;20.40;91.80
5461;DHT22;2753;49.196;8.286;2023-07-02T07:18:09;20.30;90.60
5461;DHT22;2753;49.196;8.286;2023-07-02T07:20:35;20.40;91.10
5461;DHT22;2753;49.196;8.286;2023-07-02T07:23:02;20.60;91.20
5461;DHT22;2753;49.196;8.286;2023-07-02T07:25:28;20.60;90.70
5461;DHT22;2753;49.196;8.286;2023-07-02T07:27:54;20.70;90.80
5461;DHT22;2753;49.196;8.286;2023-07-02T07:30:20;20.90;90.40
5461;DHT22;2753;49.196;8.286;2023-07-02T07:32:53;20.90;90.10
5461;DHT22;2753;49.196;8.286;2023-07-02T07:35:20;20.90;90.50
5461;DHT22;2753;49.196;8.286;2023-07-02T07:37:46;20.90;90.50
5461;DHT22;2753;49.196;8.286;2023-07-02T07:40:14;21.10;87.70
5461;DHT22;2753;49.196;8.286;2023-07-02T07:42:41;21.30;88.20
5461;DHT22;2753;49.196;8.286;2023-07-02T07:45:11;21.30;87.20
5461;DHT22;2753;49.196;8.286;2023-07-02T07:47:37;21.20;85.20
5461;DHT22;2753;49.196;8.286;2023-07-02T07:50:02;21.40;85.00
5461;DHT22;2753;49.196;8.286;2023-07-02T07:52:34;21.60;84.00
5461;DHT22;2753;49.196;8.286;2023-07-02T07:55:01;21.90;83.40
5461;DHT22;2753;49.196;8.286;2023-07-02T07:57:26;22.00;82.50
5461;DHT22;2753;49.196;8.286;2023-07-02T07:59:52;22.20;81.60
5461;DHT22;2753;49.196;8.286;2023-07-02T08:02:18;22.40;79.60
5461;DHT22;2753;49.196;8.286;2023-07-02T08:04:43;22.50;78.90
5461;DHT22;2753;49.196;8.286;2023-07-02T08:07:09;22.50;79.50
5461;DHT22;2753;49.196;8.286;2023-07-02T08:09:35;22.50;79.50
5461;DHT22;2753;49.196;8.286;2023-07-02T08:12:00;22.70;77.10
5461;DHT22;2753;49.196;8.286;2023-07-02T08:14:26;22.70;76.70
5461;DHT22;2753;49.196;8.286;2023-07-02T08:16:52;22.80;75.60
5461;DHT22;2753;49.196;8.286;2023-07-02T08:19:17;23.00;74.90
5461;DHT22;2753;49.196;8.286;2023-07-02T08:21:43;23.00;74.40
5461;DHT22;2753;49.196;8.286;2023-07-02T08:24:09;23.10;73.90
5461;DHT22;2753;49.196;8.286;2023-07-02T08:26:34;23.20;72.80
5461;DHT22;2753;49.196;8.286;2023-07-02T08:29:00;23.30;72.90
5461;DHT22;2753;49.196;8.286;2023-07-02T08:31:26;23.30;72.00
5461;DHT22;2753;49.196;8.286;2023-07-02T08:33:52;23.40;72.70
5461;DHT22;2753;49.196;8.286;2023-07-02T08:36:43;23.40;72.40
5461;DHT22;2753;49.196;8.286;2023-07-02T08:39:09;23.40;71.40
5461;DHT22;2753;49.196;8.286;2023-07-02T08:41:45;23.30;70.90
5461;DHT22;2753;49.196;8.286;2023-07-02T08:44:12;23.50;70.90
5461;DHT22;2753;49.196;8.286;2023-07-02T08:46:40;23.60;70.30
5461;DHT22;2753;49.196;8.286;2023-07-02T08:49:10;23.70;70.80
5461;DHT22;2753;49.196;8.286;2023-07-02T08:51:36;23.70;70.60
5461;DHT22;2753;49.196;8.286;2023-07-02T08:54:02;23.90;70.50
5461;DHT22;2753;49.196;8.286;2023-07-02T08:56:30;23.80;69.20
5461;DHT22;2753;49.196;8.286;2023-07-02T08:58:56;24.00;69.00
5461;DHT22;2753;49.196;8.286;2023-07-02T09:01:22;24.20;69.30
5461;DHT22;2753;49.196;8.286;2023-07-02T09:03:49;24.10;69.00
5461;DHT22;2753;49.196;8.286;2023-07-02T09:06:17;23.90;69.00
5461;DHT22;2753;49.196;8.286;2023-07-02T09:08:44;23.90;70.20
5461;DHT22;2753;49.196;8.286;2023-07-02T09:11:14;23.70;69.10
5461;DHT22;2753;49.196;8.286;2023-07-02T09:13:47;23.80;69.60
5461;DHT22;2753;49.196;8.286;2023-07-02T09:16:31;24.00;70.60
5461;DHT22;2753;49.196;8.286;2023-07-02T09:19:07;24.00;69.30
5461;DHT22;2753;49.196;8.286;2023-07-02T09:21:44;23.60;70.70
5461;DHT22;2753;49.196;8.286;2023-07-02T09:24:16;23.80;68.50
5461;DHT22;2753;49.196;8.286;2023-07-02T09:26:47;23.70;69.00
5461;DHT22;2753;49.196;8.286;2023-07-02T09:29:23;23.80;69.00
5461;DHT22;2753;49.196;8.286;2023-07-02T09:31:49;23.80;67.80
5461;DHT22;2753;49.196;8.286;2023-07-02T09:34:15;23.80;68.10
5461;DHT22;2753;49.196;8.286;2023-07-02T09:36:42;23.70;68.30
5461;DHT22;2753;49.196;8.286;2023-07-02T09:39:19;23.80;68.00
5461;DHT22;2753;49.196;8.286;2023-07-02T09:41:48;23.80;67.60
5461;DHT22;2753;49.196;8.286;2023-07-02T09:44:15;23.60;68.10
5461;DHT22;2753;49.196;8.286;2023-07-02T09:46:55;23.70;68.40
5461;DHT22;2753;49.196;8.286;2023-07-02T09:49:23;23.70;68.60
5461;DHT22;2753;49.196;8.286;2023-07-02T09:51:50;23.90;69.70
5461;DHT22;2753;49.196;8.286;2023-07-02T09:54:16;23.80;68.50
5461;DHT22;2753;49.196;8.286;2023-07-02T09:56:45;23.90;68.50
5461;DHT22;2753;49.196;8.286;2023-07-02T09:59:12;23.90;66.80
5461;DHT22;2753;49.196;8.286;2023-07-02T10:01:38;23.70;67.40
5461;DHT22;2753;49.196;8.286;2023-07-02T10:04:12;23.70;67.60
5461;DHT22;2753;49.196;8.286;2023-07-02T10:06:53;23.80;68.10
5461;DHT22;2753;49.196;8.286;2023-07-02T10:09:21;23.90;68.50
5461;DHT22;2753;49.196;8.286;2023-07-02T10:11:59;24.00;68.30
5461;DHT22;2753;49.196;8.286;2023-07-02T10:14:25;23.90;66.40
5461;DHT22;2753;49.196;8.286;2023-07-02T10:16:55;23.90;66.80
5461;DHT22;2753;49.196;8.286;2023-07-02T10:19:21;23.90;67.10
5461;DHT22;2753;49.196;8.286;2023-07-02T10:22:00;23.90;67.10
5461;DHT22;2753;49.196;8.286;2023-07-02T10:24:26;23.90;66.70
5461;DHT22;2753;49.196;8.286;2023-07-02T10:26:56;23.90;66.30
5461;DHT22;2753;49.196;8.286;2023-07-02T10:29:23;23.90;66.40
5461;DHT22;2753;49.196;8.286;2023-07-02T10:31:54;23.70;65.70
5461;DHT22;2753;49.196;8.286;2023-07-02T10:36:55;23.90;65.70
5461;DHT22;2753;49.196;8.286;2023-07-02T10:39:20;23.80;64.40
5461;DHT22;2753;49.196;8.286;2023-07-02T10:41:46;23.90;65.10
5461;DHT22;2753;49.196;8.286;2023-07-02T10:44:12;23.80;64.30
5461;DHT22;2753;49.196;8.286;2023-07-02T10:46:48;23.80;64.20
5461;DHT22;2753;49.196;8.286;2023-07-02T10:49:18;23.80;64.60
5461;DHT22;2753;49.196;8.286;2023-07-02T10:51:44;23.90;63.70
5461;DHT22;2753;49.196;8.286;2023-07-02T10:54:10;23.90;63.10
5461;DHT22;2753;49.196;8.286;2023-07-02T10:56:35;23.80;63.40
5461;DHT22;2753;49.196;8.286;2023-07-02T10:59:01;23.80;63.00
5461;DHT22;2753;49.196;8.286;2023-07-02T11:01:29;23.90;63.40
5461;DHT22;2753;49.196;8.286;2023-07-02T11:04:03;23.90;63.90
5461;DHT22;2753;49.196;8.286;2023-07-02T11:06:31;23.80;63.60
5461;DHT22;2753;49.196;8.286;2023-07-02T11:08:59;23.80;63.80
5461;DHT22;2753;49.196;8.286;2023-07-02T11:11:25;23.80;63.40
5461;DHT22;2753;49.196;8.286;2023-07-02T11:13:51;23.90;64.00
5461;DHT22;2753;49.196;8.286;2023-07-02T11:16:23;23.90;64.90
5461;DHT22;2753;49.196;8.286;2023-07-02T11:18:52;23.90;65.00
5461;DHT22;2753;49.196;8.286;2023-07-02T11:21:18;23.90;64.70
5461;DHT22;2753;49.196;8.286;2023-07-02T11:23:44;23.90;65.10
5461;DHT22;2753;49.196;8.286;2023-07-02T11:26:09;23.90;65.30
5461;DHT22;2753;49.196;8.286;2023-07-02T11:28:35;23.90;63.60
5461;DHT22;2753;49.196;8.286;2023-07-02T11:31:01;23.90;62.50
5461;DHT22;2753;49.196;8.286;2023-07-02T11:33:35;23.90;63.50
5461;DHT22;2753;49.196;8.286;2023-07-02T11:36:01;23.90;62.90
5461;DHT22;2753;49.196;8.286;2023-07-02T11:38:27;24.00;62.50
5461;DHT22;2753;49.196;8.286;2023-07-02T11:40:53;24.10;62.40
5461;DHT22;2753;49.196;8.286;2023-07-02T11:43:18;24.10;62.50
5461;DHT22;2753;49.196;8.286;2023-07-02T11:45:44;24.20;62.20
5461;DHT22;2753;49.196;8.286;2023-07-02T11:48:10;24.30;63.00
5461;DHT22;2753;49.196;8.286;2023-07-02T11:50:35;24.30;62.70
5461;DHT22;2753;49.196;8.286;2023-07-02T11:53:01;24.40;62.80
5461;DHT22;2753;49.196;8.286;2023-07-02T11:55:28;24.40;62.80
5461;DHT22;2753;49.196;8.286;2023-07-02T11:57:53;24.40;61.70
5461;DHT22;2753;49.196;8.286;2023-07-02T12:00:19;24.40;60.30
5461;DHT22;2753;49.196;8.286;2023-07-02T12:02:45;24.40;61.30
5461;DHT22;2753;49.196;8.286;2023-07-02T12:05:11;24.50;62.20
5461;DHT22;2753;49.196;8.286;2023-07-02T12:07:37;24.50;62.70
5461;DHT22;2753;49.196;8.286;2023-07-02T12:10:02;24.50;62.60
5461;DHT22;2753;49.196;8.286;2023-07-02T12:12:28;24.40;62.10
5461;DHT22;2753;49.196;8.286;2023-07-02T12:14:54;24.30;61.30
5461;DHT22;2753;49.196;8.286;2023-07-02T12:17:19;24.30;61.80
5461;DHT22;2753;49.196;8.286;2023-07-02T12:19:45;24.30;61.00
5461;DHT22;2753;49.196;8.286;2023-07-02T12:22:11;24.30;61.30
5461;DHT22;2753;49.196;8.286;2023-07-02T12:24:36;24.40;61.00
5461;DHT22;2753;49.196;8.286;2023-07-02T12:27:02;24.50;60.60
5461;DHT22;2753;49.196;8.286;2023-07-02T12:29:28;24.50;61.10
5461;DHT22;2753;49.196;8.286;2023-07-02T12:31:53;24.50;61.90
5461;DHT22;2753;49.196;8.286;2023-07-02T12:34:19;24.60;62.40
5461;DHT22;2753;49.196;8.286;2023-07-02T12:36:44;24.60;62.50
5461;DHT22;2753;49.196;8.286;2023-07-02T12:39:10;24.70;61.80
5461;DHT22;2753;49.196;8.286;2023-07-02T12:41:36;24.70;60.30
5461;DHT22;2753;49.196;8.286;2023-07-02T12:44:01;24.70;60.00
5461;DHT22;2753;49.196;8.286;2023-07-02T12:46:27;24.60;59.30
5461;DHT22;2753;49.196;8.286;2023-07-02T12:48:53;24.60;59.80
5461;DHT22;2753;49.196;8.286;2023-07-02T12:51:18;24.70;60.40
5461;DHT22;2753;49.196;8.286;2023-07-02T12:53:44;24.80;61.60
5461;DHT22;2753;49.196;8.286;2023-07-02T12:56:09;24.90;61.90
5461;DHT22;2753;49.196;8.286;2023-07-02T12:58:35;25.00;60.80
5461;DHT22;2753;49.196;8.286;2023-07-02T13:01:01;25.00;62.30
5461;DHT22;2753;49.196;8.286;2023-07-02T13:03:30;25.00;60.30
5461;DHT22;2753;49.196;8.286;2023-07-02T13:05:56;25.00;60.00
5461;DHT22;2753;49.196;8.286;2023-07-02T13:08:21;25.00;59.70
5461;DHT22;2753;49.196;8.286;2023-07-02T13:10:50;24.90;58.50
5461;DHT22;2753;49.196;8.286;2023-07-02T13:13:15;24.90;59.00
5461;DHT22;2753;49.196;8.286;2023-07-02T13:15:41;24.90;58.70
5461;DHT22;2753;49.196;8.286;2023-07-02T13:18:07;24.90;58.80
5461;DHT22;2753;49.196;8.286;2023-07-02T13:20:32;24.90;59.80
5461;DHT22;2753;49.196;8.286;2023-07-02T13:22:58;25.00;60.30
5461;DHT22;2753;49.196;8.286;2023-07-02T13:25:24;25.00;61.10
5461;DHT22;2753;49.196;8.286;2023-07-02T13:27:49;25.10;60.30
5461;DHT22;2753;49.196;8.286;2023-07-02T13:30:15;25.20;60.30
5461;DHT22;2753;49.196;8.286;2023-07-02T13:32:41;25.20;60.40
5461;DHT22;2753;49.196;8.286;2023-07-02T13:35:06;25.20;60.60
5461;DHT22;2753;49.196;8.286;2023-07-02T13:37:32;25.30;60.20
5461;DHT22;2753;49.196;8.286;2023-07-02T13:39:58;25.40;59.50
5461;DHT22;2753;49.196;8.286;2023-07-02T13:42:24;25.40;58.50
5461;DHT22;2753;49.196;8.286;2023-07-02T13:44:49;25.40;59.00
5461;DHT22;2753;49.196;8.286;2023-07-02T13:47:15;25.30;58.90
5461;DHT22;2753;49.196;8.286;2023-07-02T13:49:41;25.30;59.30
5461;DHT22;2753;49.196;8.286;2023-07-02T13:52:07;25.30;59.10
5461;DHT22;2753;49.196;8.286;2023-07-02T13:54:32;25.20;59.40
5461;DHT22;2753;49.196;8.286;2023-07-02T13:56:58;25.10;59.10
5461;DHT22;2753;49.196;8.286;2023-07-02T13:59:24;25.10;58.70
5461;DHT22;2753;49.196;8.286;2023-07-02T14:01:50;25.10;59.40
5461;DHT22;2753;49.196;8.286;2023-07-02T14:04:16;25.10;58.70
5461;DHT22;2753;49.196;8.286;2023-07-02T14:06:43;25.30;59.10
5461;DHT22;2753;49.196;8.286;2023-07-02T14:09:09;25.40;58.00
5461;DHT22;2753;49.196;8.286;2023-07-02T14:11:39;25.40;58.80
5461;DHT22;2753;49.196;8.286;2023-07-02T14:14:05;25.40;58.60
5461;DHT22;2753;49.196;8.286;2023-07-02T14:16:31;25.40;59.00
5461;DHT22;2753;49.196;8.286;2023-07-02T14:18:56;25.40;58.70
5461;DHT22;2753;49.196;8.286;2023-07-02T14:21:22;25.50;59.10
5461;DHT22;2753;49.196;8.286;2023-07-02T14:23:48;25.50;57.70
5461;DHT22;2753;49.196;8.286;2023-07-02T14:26:13;25.50;57.70
5461;DHT22;2753;49.196;8.286;2023-07-02T14:28:39;25.50;58.00
5461;DHT22;2753;49.196;8.286;2023-07-02T14:31:06;25.50;57.40
5461;DHT22;2753;49.196;8.286;2023-07-02T14:33:34;25.50;57.00
5461;DHT22;2753;49.196;8.286;2023-07-02T14:36:01;25.40;57.10
5461;DHT22;2753;49.196;8.286;2023-07-02T14:38:27;25.40;57.40
5461;DHT22;2753;49.196;8.286;2023-07-02T14:40:54;25.40;57.70
5461;DHT22;2753;49.196;8.286;2023-07-02T14:43:22;25.40;58.10
5461;DHT22;2753;49.196;8.286;2023-07-02T14:45:50;25.50;58.30
5461;DHT22;2753;49.196;8.286;2023-07-02T14:48:17;25.50;57.80
5461;DHT22;2753;49.196;8.286;2023-07-02T14:50:52;25.40;57.50
5461;DHT22;2753;49.196;8.286;2023-07-02T14:53:18;25.40;56.50
5461;DHT22;2753;49.196;8.286;2023-07-02T14:55:44;25.30;56.90
5461;DHT22;2753;49.196;8.286;2023-07-02T14:58:11;25.30;57.80
5461;DHT22;2753;49.196;8.286;2023-07-02T15:00:53;25.30;58.20
5461;DHT22;2753;49.196;8.286;2023-07-02T15:03:20;25.40;58.80
5461;DHT22;2753;49.196;8.286;2023-07-02T15:05:48;25.40;57.70
5461;DHT22;2753;49.196;8.286;2023-07-02T15:08:14;25.30;57.70
5461;DHT22;2753;49.196;8.286;2023-07-02T15:10:49;25.30;57.60
5461;DHT22;2753;49.196;8.286;2023-07-02T15:13:15;25.40;58.00
5461;DHT22;2753;49.196;8.286;2023-07-02T15:15:43;25.30;57.10
5461;DHT22;2753;49.196;8.286;2023-07-02T15:18:09;25.30;57.60
5461;DHT22;2753;49.196;8.286;2023-07-02T15:20:35;25.30;56.80
5461;DHT22;2753;49.196;8.286;2023-07-02T15:23:01;25.30;55.80
5461;DHT22;2753;49.196;8.286;2023-07-02T15:25:27;25.30;56.10
5461;DHT22;2753;49.196;8.286;2023-07-02T15:27:53;25.30;56.40
5461;DHT22;2753;49.196;8.286;2023-07-02T15:30:19;25.30;56.90
5461;DHT22;2753;49.196;8.286;2023-07-02T15:32:44;25.40;57.10
5461;DHT22;2753;49.196;8.286;2023-07-02T15:35:10;25.40;57.00
5461;DHT22;2753;49.196;8.286;2023-07-02T15:37:36;25.40;56.90
5461;DHT22;2753;49.196;8.286;2023-07-02T15:40:02;25.40;57.00
5461;DHT22;2753;49.196;8.286;2023-07-02T15:42:27;25.40;56.60
5461;DHT22;2753;49.196;8.286;2023-07-02T15:44:55;25.30;56.50
5461;DHT22;2753;49.196;8.286;2023-07-02T15:47:22;25.30;56.60
5461;DHT22;2753;49.196;8.286;2023-07-02T15:49:48;25.20;56.30
5461;DHT22;2753;49.196;8.286;2023-07-02T15:52:14;25.20;56.80
5461;DHT22;2753;49.196;8.286;2023-07-02T15:54:39;25.20;56.60
5461;DHT22;2753;49.196;8.286;2023-07-02T15:57:05;25.20;56.40
5461;DHT22;2753;49.196;8.286;2023-07-02T15:59:32;25.20;56.70
5461;DHT22;2753;49.196;8.286;2023-07-02T16:01:57;25.10;56.40
5461;DHT22;2753;49.196;8.286;2023-07-02T16:04:23;25.20;57.10